Barnard, Indiana
Current Conditions -  °F | °C
As of 5:35 AM on Thursday 29 Jan 2015 (Local Time) from K4I7 Reporting Station
Clear Clear  
Wind Chill: 37°   Ceiling: Unl
Heat Index: 43°   Visibility: 10mi
Dew Point: 28°   Wind: 10mph
Humidity: 57%   Direction: 190°S
Pressure: 29.79"   Gusts: 17mph
Location:  39.821°N, 86.7929°W
Report Text: K4I7 291035Z AUTO 19009G15KT 10SM CLR 06/M02 A2979 RMK AO2
Loading
Personal Weather Stations






























Interactive Weather Map New forecast layout! Learn more

10-Day Weather Forecast

Advertisements
Track Severe Weather on mobile